Time;durP1;ratioP1;P1;durP2;ratioP2;P2;SDS_P1;SDS_P2;PMS_P1;PMS_P2;Temp;Humidity;BMP_temperature;BMP_pressure;BME280_temperature;BME280_humidity;BME280_pressure;Samples;Min_cycle;Max_cycle;Signal;HPM_P1;HPM_P2
2022/06/18 00:00:29;;;;;;;1.25;0.70;;;23.20;56.10;;;;;;5113045;28;20035;-69
2022/06/18 00:02:55;;;;;;;1.23;0.50;;;23.20;56.10;;;;;;5114520;28;20043;-68
2022/06/18 00:05:21;;;;;;;1.40;0.50;;;23.30;56.20;;;;;;5114312;28;20039;-69
2022/06/18 00:07:51;;;;;;;1.38;0.60;;;23.20;56.20;;;;;;5096536;28;20040;-68
2022/06/18 00:10:20;;;;;;;1.67;0.80;;;23.20;56.20;;;;;;5113209;28;20479;-68
2022/06/18 00:15:36;;;;;;;1.23;0.60;;;23.10;56.20;;;;;;5113889;28;20062;-69
2022/06/18 00:18:03;;;;;;;;;;;23.20;56.30;;;;;;5114505;28;20040;-70
2022/06/18 00:20:33;;;;;;;0.70;0.50;;;23.10;56.50;;;;;;5113077;28;19937;-68
2022/06/18 00:23:02;;;;;;;1.08;0.60;;;23.10;56.40;;;;;;5112165;28;20047;-69
2022/06/18 00:25:32;;;;;;;1.10;0.50;;;23.10;56.40;;;;;;5112373;28;20077;-69
2022/06/18 00:27:59;;;;;;;1.08;0.73;;;23.10;56.40;;;;;;5112995;28;20047;-69
2022/06/18 00:30:28;;;;;;;2.10;0.50;;;23.10;56.40;;;;;;5113924;28;20175;-69
2022/06/18 00:32:54;;;;;;;0.80;0.60;;;23.10;56.50;;;;;;5112273;28;20062;-69
2022/06/18 00:35:20;;;;;;;2.08;0.70;;;23.10;56.50;;;;;;5112419;28;20035;-69
2022/06/18 00:37:51;;;;;;;0.95;0.65;;;23.00;56.50;;;;;;5114002;28;20089;-69
2022/06/18 00:43:12;;;;;;;0.82;0.63;;;23.10;56.50;;;;;;5089661;28;20776;-69
2022/06/18 00:45:38;;;;;;;1.05;0.65;;;23.10;56.60;;;;;;5088199;28;20047;-69
2022/06/18 00:48:19;;;;;;;1.65;0.85;;;23.10;56.60;;;;;;5088080;28;20036;-68
2022/06/18 00:53:33;;;;;;;1.23;0.80;;;23.10;56.70;;;;;;5129869;27;20353;-68
2022/06/18 00:56:12;;;;;;;1.98;0.70;;;23.10;56.70;;;;;;5128806;28;20047;-68
2022/06/18 00:58:46;;;;;;;1.38;0.98;;;23.00;56.70;;;;;;5128541;27;20671;-69
2022/06/18 01:01:21;;;;;;;1.05;0.65;;;23.00;56.70;;;;;;5128527;28;20376;-68
2022/06/18 01:03:47;;;;;;;1.15;0.50;;;23.00;56.70;;;;;;5128822;28;20035;-68
2022/06/18 01:06:19;;;;;;;1.00;0.52;;;23.00;56.70;;;;;;5128596;28;20096;-69
2022/06/18 01:08:46;;;;;;;1.23;0.75;;;22.90;56.70;;;;;;5129076;28;20418;-69
2022/06/18 01:11:20;;;;;;;2.25;0.95;;;23.00;56.70;;;;;;5127883;27;20145;-68
2022/06/18 01:13:47;;;;;;;0.90;0.80;;;23.00;56.70;;;;;;5129696;27;20579;-69
2022/06/18 01:16:16;;;;;;;1.30;0.80;;;23.00;56.80;;;;;;5145678;27;20066;-68
2022/06/18 01:18:43;;;;;;;0.93;0.63;;;23.00;56.80;;;;;;5128494;28;20031;-69
2022/06/18 01:21:39;;;;;;;1.50;0.82;;;23.00;56.70;;;;;;5129294;27;20273;-69
2022/06/18 01:24:32;;;;;;;1.70;0.60;;;23.00;56.80;;;;;;5128258;27;20039;-68
2022/06/18 01:26:59;;;;;;;2.53;0.70;;;23.00;56.90;;;;;;5128359;27;20035;-68
2022/06/18 01:29:28;;;;;;;1.10;0.60;;;22.90;56.80;;;;;;5129594;27;20088;-69
2022/06/18 01:31:55;;;;;;;1.63;0.73;;;23.00;56.80;;;;;;5127655;27;20483;-69
2022/06/18 01:34:21;;;;;;;1.13;0.73;;;22.90;56.80;;;;;;5127891;28;20478;-70
2022/06/18 01:36:47;;;;;;;1.40;0.60;;;22.90;56.80;;;;;;5145199;27;20097;-69
2022/06/18 01:39:17;;;;;;;1.27;0.65;;;22.90;56.80;;;;;;5128929;27;20046;-68
2022/06/18 01:41:49;;;;;;;3.15;1.05;;;22.90;56.90;;;;;;5129102;27;20418;-69
2022/06/18 01:44:21;;;;;;;1.15;0.80;;;22.90;56.90;;;;;;5127939;28;20038;-68
2022/06/18 01:46:51;;;;;;;1.45;0.52;;;22.90;56.90;;;;;;5128837;27;20039;-68
2022/06/18 01:49:23;;;;;;;3.38;0.93;;;22.90;56.90;;;;;;5127924;28;20035;-69
2022/06/18 01:51:51;;;;;;;1.20;0.82;;;22.90;56.90;;;;;;5127207;28;20056;-69
2022/06/18 01:54:23;;;;;;;2.35;1.10;;;22.90;56.90;;;;;;5128731;27;20040;-68
2022/06/18 01:56:55;;;;;;;1.30;0.63;;;22.90;56.90;;;;;;5127314;27;20448;-68
2022/06/18 02:02:07;;;;;;;1.10;0.85;;;22.90;56.90;;;;;;5154434;27;1166384;-69
2022/06/18 02:04:34;;;;;;;3.03;0.80;;;22.90;57.00;;;;;;5171543;27;20034;-69
2022/06/18 02:07:00;;;;;;;0.88;0.63;;;22.90;57.00;;;;;;5152526;27;20133;-68
2022/06/18 02:12:25;;;;;;;1.40;1.00;;;22.80;57.00;;;;;;5129628;27;20403;-69
2022/06/18 02:14:55;;;;;;;2.13;0.65;;;22.90;57.10;;;;;;5129915;27;20402;-69
2022/06/18 02:17:27;;;;;;;1.77;0.95;;;22.80;57.00;;;;;;5128717;28;20100;-68
2022/06/18 02:19:59;;;;;;;1.13;0.90;;;22.80;57.00;;;;;;5129647;28;20378;-68
2022/06/18 02:22:33;;;;;;;1.42;0.80;;;22.80;57.10;;;;;;5128585;28;20417;-68
2022/06/18 02:24:58;;;;;;;1.35;0.77;;;22.80;57.10;;;;;;5128609;28;20039;-69
2022/06/18 02:27:24;;;;;;;1.73;0.80;;;22.80;57.10;;;;;;5128621;28;20039;-69
2022/06/18 02:29:50;;;;;;;1.25;0.90;;;22.80;57.10;;;;;;5128810;28;20618;-69
2022/06/18 02:32:34;;;;;;;1.17;0.95;;;22.80;57.10;;;;;;5128054;28;20387;-69
2022/06/18 02:34:59;;;;;;;0.88;0.68;;;22.80;57.10;;;;;;5129467;27;20039;-69
2022/06/18 02:37:30;;;;;;;2.10;0.90;;;22.80;57.10;;;;;;5129317;27;20035;-68
2022/06/18 02:39:59;;;;;;;1.42;0.88;;;22.80;57.20;;;;;;5128136;28;20487;-69
2022/06/18 02:42:28;;;;;;;1.52;0.80;;;22.80;57.20;;;;;;5129522;27;20039;-68
2022/06/18 02:44:54;;;;;;;1.35;0.90;;;22.80;57.20;;;;;;5129495;27;20099;-68
2022/06/18 02:47:21;;;;;;;1.48;0.70;;;22.80;57.20;;;;;;5129267;27;20114;-68
2022/06/18 02:50:01;;;;;;;1.58;0.70;;;22.80;57.30;;;;;;5129460;27;20051;-69
2022/06/18 02:52:32;;;;;;;1.52;1.00;;;22.80;57.40;;;;;;5127866;28;20055;-69
2022/06/18 02:55:16;;;;;;;1.48;1.00;;;22.70;57.30;;;;;;5129096;27;20547;-68
2022/06/18 02:57:42;;;;;;;2.15;1.25;;;22.80;57.40;;;;;;5129024;27;20118;-69
2022/06/18 03:00:12;;;;;;;1.95;1.08;;;22.80;57.40;;;;;;5127459;28;20619;-69
2022/06/18 03:02:38;;;;;;;1.45;0.98;;;22.70;57.30;;;;;;5129026;27;20042;-69
2022/06/18 03:05:04;;;;;;;1.50;1.02;;;22.70;57.40;;;;;;5128079;28;20382;-69
2022/06/18 03:07:30;;;;;;;2.35;1.20;;;22.70;57.40;;;;;;5127593;27;20562;-68
2022/06/18 03:12:41;;;;;;;1.45;0.85;;;22.70;57.40;;;;;;5127112;28;20104;-68
2022/06/18 03:15:07;;;;;;;1.20;1.00;;;22.70;57.40;;;;;;5127242;27;20039;-68
2022/06/18 03:17:33;;;;;;;3.40;1.85;;;22.70;57.40;;;;;;5127255;28;20047;-69
2022/06/18 03:20:07;;;;;;;2.45;0.77;;;22.70;57.50;;;;;;5128665;28;20043;-69
2022/06/18 03:22:33;;;;;;;1.63;0.90;;;22.70;57.50;;;;;;5120088;28;20040;-68
2022/06/18 03:24:59;;;;;;;1.40;1.00;;;22.70;57.50;;;;;;5113717;28;20475;-69
2022/06/18 03:27:25;;;;;;;1.92;1.05;;;22.60;57.50;;;;;;5113706;28;20054;-68
2022/06/18 03:29:52;;;;;;;1.88;1.08;;;22.70;57.60;;;;;;5114030;28;20047;-68
2022/06/18 03:32:18;;;;;;;1.55;1.17;;;22.60;58.30;;;;;;5113281;28;20052;-68
2022/06/18 03:34:44;;;;;;;1.98;1.15;;;22.60;57.50;;;;;;5114646;27;20035;-69
2022/06/18 03:37:10;;;;;;;1.77;1.33;;;22.60;57.50;;;;;;5113526;28;20044;-69
2022/06/18 03:39:36;;;;;;;1.98;1.17;;;22.60;57.60;;;;;;5114764;27;20031;-68
2022/06/18 03:42:02;;;;;;;1.80;1.30;;;22.60;57.60;;;;;;5114527;28;20662;-69
2022/06/18 03:44:28;;;;;;;1.75;1.00;;;22.60;57.60;;;;;;5113040;28;20058;-69
2022/06/18 03:46:54;;;;;;;1.60;1.17;;;22.60;57.60;;;;;;5114609;28;20039;-69
2022/06/18 03:49:30;;;;;;;1.35;0.75;;;22.60;57.70;;;;;;5113348;28;20031;-68
2022/06/18 03:51:57;;;;;;;2.95;1.20;;;22.60;57.70;;;;;;5112986;28;20051;-68
2022/06/18 03:54:24;;;;;;;1.73;0.80;;;22.60;57.70;;;;;;5114104;28;20123;-69
2022/06/18 03:56:50;;;;;;;1.40;0.95;;;22.60;57.70;;;;;;5113156;28;20035;-68
2022/06/18 03:59:16;;;;;;;3.60;1.20;;;22.60;57.70;;;;;;5112814;28;20039;-69
2022/06/18 04:01:42;;;;;;;1.25;0.93;;;22.60;57.70;;;;;;5114077;28;20046;-69
2022/06/18 04:04:08;;;;;;;1.70;1.10;;;22.60;57.70;;;;;;5112769;28;20047;-68
2022/06/18 04:06:34;;;;;;;1.52;1.00;;;22.60;57.70;;;;;;5112894;28;20043;-69
2022/06/18 04:09:00;;;;;;;2.00;1.15;;;22.60;57.70;;;;;;5113234;28;20039;-69
2022/06/18 04:11:26;;;;;;;2.30;1.20;;;22.60;57.80;;;;;;5113591;28;20079;-68
2022/06/18 04:13:51;;;;;;;1.15;0.98;;;22.60;57.80;;;;;;5112594;28;20049;-68
2022/06/18 04:16:17;;;;;;;1.17;0.85;;;22.60;57.80;;;;;;5113760;28;20364;-69
2022/06/18 04:18:43;;;;;;;1.75;1.05;;;22.60;57.70;;;;;;5113696;28;20524;-70
2022/06/18 04:21:09;;;;;;;2.30;1.20;;;22.60;57.70;;;;;;5111596;28;20044;-68
2022/06/18 04:23:36;;;;;;;2.35;1.00;;;22.50;57.70;;;;;;5112539;28;20070;-69
2022/06/18 04:26:02;;;;;;;1.85;0.88;;;22.60;57.70;;;;;;5113889;28;20039;-68
2022/06/18 04:28:28;;;;;;;2.22;1.00;;;22.60;57.80;;;;;;5113620;28;20391;-69
2022/06/18 04:30:54;;;;;;;1.48;1.38;;;22.60;57.70;;;;;;5112580;28;20039;-69
2022/06/18 04:33:20;;;;;;;1.33;1.00;;;22.60;57.70;;;;;;5112894;28;20036;-69
2022/06/18 04:35:49;;;;;;;1.80;1.20;;;22.70;58.20;;;;;;5111667;28;20368;-68
2022/06/18 04:38:15;;;;;;;1.27;0.90;;;22.60;57.70;;;;;;5113320;28;20039;-69
2022/06/18 04:40:40;;;;;;;1.45;1.00;;;22.60;57.70;;;;;;5113392;28;20044;-69
2022/06/18 04:43:08;;;;;;;1.65;1.05;;;22.60;57.70;;;;;;5112002;28;20047;-68
2022/06/18 04:45:35;;;;;;;2.13;1.30;;;22.60;57.70;;;;;;5113367;28;20043;-68
2022/06/18 04:48:01;;;;;;;1.95;1.30;;;22.60;57.70;;;;;;5112205;28;20047;-69
2022/06/18 04:50:31;;;;;;;2.20;1.38;;;22.60;57.70;;;;;;5112250;28;20044;-69
2022/06/18 04:52:57;;;;;;;2.45;1.08;;;22.60;57.70;;;;;;5111575;28;20051;-69
2022/06/18 04:55:23;;;;;;;1.70;1.10;;;22.60;57.70;;;;;;5111312;28;20031;-69
2022/06/18 04:57:49;;;;;;;1.45;1.20;;;22.70;57.70;;;;;;5111380;28;20096;-68
2022/06/18 05:00:16;;;;;;;1.42;0.95;;;22.60;57.70;;;;;;5112899;28;20122;-69
2022/06/18 05:02:42;;;;;;;1.85;1.23;;;22.60;57.70;;;;;;5111907;28;20051;-68
2022/06/18 05:05:15;;;;;;;1.25;1.15;;;22.60;57.80;;;;;;5112893;28;20387;-69
2022/06/18 05:07:40;;;;;;;2.08;1.23;;;22.60;57.70;;;;;;5111683;28;20047;-68
2022/06/18 05:10:07;;;;;;;2.65;1.42;;;22.60;57.70;;;;;;5111813;28;20038;-68
2022/06/18 05:12:33;;;;;;;1.92;1.30;;;22.70;57.70;;;;;;5112440;28;20516;-68
2022/06/18 05:14:59;;;;;;;1.77;1.25;;;22.60;57.70;;;;;;5111583;28;20040;-68
2022/06/18 05:17:28;;;;;;;1.95;1.25;;;22.60;57.70;;;;;;5112434;28;20525;-68
2022/06/18 05:19:54;;;;;;;2.25;1.25;;;22.60;57.70;;;;;;5112558;28;20044;-68
2022/06/18 05:22:20;;;;;;;1.77;1.30;;;22.70;57.70;;;;;;5112496;28;20043;-68
2022/06/18 05:24:48;;;;;;;2.25;1.45;;;22.70;57.80;;;;;;5128304;27;20646;-69
2022/06/18 05:27:35;;;;;;;2.70;1.20;;;22.70;57.80;;;;;;5111687;28;20081;-68
2022/06/18 05:30:01;;;;;;;1.67;1.20;;;22.70;57.80;;;;;;5111570;28;20085;-68
2022/06/18 05:32:27;;;;;;;2.47;1.10;;;22.70;57.80;;;;;;5112571;28;20580;-68
2022/06/18 05:34:52;;;;;;;1.70;1.05;;;22.70;57.80;;;;;;5110814;28;20039;-69
2022/06/18 05:37:24;;;;;;;1.50;1.23;;;22.70;57.80;;;;;;5128138;27;20047;-69
2022/06/18 05:39:49;;;;;;;2.85;1.15;;;22.70;57.80;;;;;;5110795;28;20043;-68
2022/06/18 05:42:15;;;;;;;2.85;1.20;;;22.70;57.80;;;;;;5112323;28;20031;-68
2022/06/18 05:44:41;;;;;;;2.75;1.20;;;22.70;57.80;;;;;;5110721;28;20043;-68
2022/06/18 05:47:14;;;;;;;1.45;1.23;;;22.70;57.80;;;;;;5112357;28;20399;-69
2022/06/18 05:49:40;;;;;;;1.65;1.30;;;22.70;57.80;;;;;;5111001;28;20043;-69
2022/06/18 05:52:08;;;;;;;1.77;1.30;;;22.70;57.80;;;;;;5112333;28;20096;-69
2022/06/18 05:54:33;;;;;;;2.53;1.75;;;22.70;57.80;;;;;;5111825;28;20109;-68
2022/06/18 05:56:59;;;;;;;1.80;1.00;;;22.70;57.80;;;;;;5112160;28;20487;-68
2022/06/18 05:59:25;;;;;;;3.00;1.13;;;22.70;57.80;;;;;;5111025;28;20035;-68
2022/06/18 06:01:51;;;;;;;2.35;1.27;;;22.70;57.80;;;;;;5111785;28;20038;-68
2022/06/18 06:04:19;;;;;;;1.58;1.23;;;22.70;57.80;;;;;;5110959;28;20414;-68
2022/06/18 06:06:45;;;;;;;4.03;1.95;;;22.70;57.80;;;;;;5112160;28;20059;-69
2022/06/18 06:11:28;;;;;;;2.85;1.23;;;22.70;57.80;;;;;;5110871;28;20047;-68
2022/06/18 06:11:59;;;;;;;2.33;1.50;;;22.70;57.80;;;;;;5110482;28;20083;-69
2022/06/18 06:14:28;;;;;;;2.28;1.13;;;22.80;57.90;;;;;;5110557;28;20159;-68
2022/06/18 06:16:54;;;;;;;1.67;0.95;;;22.70;57.80;;;;;;5110595;28;20043;-69
2022/06/18 06:19:20;;;;;;;2.30;1.40;;;22.70;57.70;;;;;;5111671;28;20038;-68
2022/06/18 06:21:45;;;;;;;2.20;1.38;;;22.80;57.80;;;;;;5110373;28;20039;-68
2022/06/18 06:24:11;;;;;;;1.63;1.10;;;22.80;57.80;;;;;;5110760;28;20075;-69
2022/06/18 06:26:36;;;;;;;2.92;1.85;;;22.80;57.80;;;;;;5110760;28;20052;-69
2022/06/18 06:29:03;;;;;;;3.17;1.23;;;22.80;57.80;;;;;;5110720;28;20120;-68
2022/06/18 06:31:29;;;;;;;2.00;1.33;;;22.80;57.80;;;;;;5112085;28;20039;-69
2022/06/18 06:33:54;;;;;;;2.47;1.63;;;22.80;57.80;;;;;;5110511;28;20035;-69
2022/06/18 06:36:20;;;;;;;2.78;2.10;;;22.80;57.80;;;;;;5110295;28;20044;-69
2022/06/18 06:38:48;;;;;;;1.80;0.98;;;22.80;57.80;;;;;;5110185;28;20069;-70
2022/06/18 06:41:19;;;;;;;2.35;1.52;;;22.80;57.80;;;;;;5111668;28;20039;-69
2022/06/18 06:43:44;;;;;;;3.03;1.65;;;22.80;57.80;;;;;;5111671;28;20031;-68
2022/06/18 06:46:12;;;;;;;3.08;1.92;;;22.80;57.80;;;;;;5111431;28;20511;-68
2022/06/18 06:48:38;;;;;;;1.90;1.67;;;22.80;57.80;;;;;;5111785;28;20039;-68
2022/06/18 06:51:10;;;;;;;2.13;1.05;;;22.80;57.80;;;;;;5111718;28;20395;-68
2022/06/18 06:53:36;;;;;;;2.58;1.33;;;22.80;57.80;;;;;;5110460;28;20031;-68
2022/06/18 06:58:50;;;;;;;2.95;2.22;;;22.80;57.80;;;;;;5108298;28;20036;-67
2022/06/18 07:01:16;;;;;;;3.10;1.60;;;22.90;58.10;;;;;;5114363;28;20477;-67
2022/06/18 07:03:42;;;;;;;3.53;1.65;;;22.90;58.30;;;;;;5113313;28;20050;-67
2022/06/18 07:06:08;;;;;;;4.15;1.52;;;22.90;58.40;;;;;;5111440;28;20078;-69
2022/06/18 07:08:34;;;;;;;10.77;2.30;;;22.90;58.70;;;;;;5114123;28;20648;-69
2022/06/18 07:11:00;;;;;;;5.40;1.90;;;22.90;58.90;;;;;;5114095;27;20047;-68
2022/06/18 07:13:26;;;;;;;6.43;1.70;;;23.00;59.10;;;;;;5113943;28;20379;-68
2022/06/18 07:15:53;;;;;;;2.63;1.30;;;23.10;59.30;;;;;;5113868;28;20047;-67
2022/06/18 07:18:22;;;;;;;5.25;1.63;;;23.10;59.30;;;;;;5114905;28;20096;-67
2022/06/18 07:20:48;;;;;;;3.40;1.80;;;23.10;59.50;;;;;;5113942;28;20047;-69
2022/06/18 07:23:14;;;;;;;7.20;1.80;;;23.10;59.50;;;;;;5113561;28;20118;-67
2022/06/18 07:25:40;;;;;;;3.72;1.55;;;23.20;59.50;;;;;;5113801;28;20089;-67
2022/06/18 07:28:06;;;;;;;3.03;2.08;;;23.20;59.40;;;;;;5111952;28;20063;-68
2022/06/18 07:30:33;;;;;;;5.05;1.50;;;23.20;59.40;;;;;;5118203;27;20036;-66
2022/06/18 07:32:59;;;;;;;3.30;1.90;;;23.20;59.40;;;;;;5113176;28;20444;-68
2022/06/18 07:35:27;;;;;;;3.08;1.92;;;23.20;59.30;;;;;;5112067;28;20031;-67
2022/06/18 07:37:56;;;;;;;3.33;1.67;;;23.30;59.30;;;;;;5113933;27;20044;-68
2022/06/18 07:40:29;;;;;;;2.30;1.25;;;23.30;59.20;;;;;;5112870;28;20391;-68
2022/06/18 07:42:55;;;;;;;4.80;2.28;;;23.40;59.20;;;;;;5112968;28;20518;-69
2022/06/18 07:45:24;;;;;;;2.65;1.73;;;23.40;59.10;;;;;;5111261;28;20071;-69
2022/06/18 07:47:51;;;;;;;6.40;1.85;;;23.40;59.00;;;;;;5114664;28;20501;-68
2022/06/18 07:50:19;;;;;;;11.48;2.70;;;23.50;58.90;;;;;;5112615;28;20059;-69
2022/06/18 07:52:45;;;;;;;3.65;1.50;;;23.50;58.80;;;;;;5114309;28;20044;-68
2022/06/18 07:55:17;;;;;;;3.67;1.40;;;23.50;58.70;;;;;;5112968;28;20528;-67
2022/06/18 07:57:43;;;;;;;3.45;1.85;;;23.50;58.50;;;;;;5113867;28;20035;-68
2022/06/18 08:00:15;;;;;;;3.45;1.73;;;23.50;59.10;;;;;;5112925;28;20050;-69
2022/06/18 08:02:42;;;;;;;4.53;1.27;;;23.60;58.20;;;;;;5113919;28;20035;-68
2022/06/18 08:05:09;;;;;;;4.40;1.30;;;23.60;58.10;;;;;;5114163;28;20039;-68
2022/06/18 08:07:35;;;;;;;3.75;1.48;;;23.60;58.20;;;;;;5114269;28;20542;-67
2022/06/18 08:10:01;;;;;;;6.35;1.60;;;23.60;58.20;;;;;;5112645;28;20119;-67
2022/06/18 08:12:31;;;;;;;3.30;1.60;;;23.70;58.10;;;;;;5114179;28;20552;-68
2022/06/18 08:14:58;;;;;;;;;;;23.70;58.10;;;;;;5114636;27;20123;-68
2022/06/18 08:17:25;;;;;;;2.88;1.63;;;23.70;58.10;;;;;;5101455;28;20312;-68
2022/06/18 08:19:51;;;;;;;1.40;1.25;;;23.80;57.90;;;;;;5095418;28;20399;-69
2022/06/18 08:22:17;;;;;;;1.83;1.25;;;23.80;57.80;;;;;;5122737;27;20032;-68
2022/06/18 08:24:43;;;;;;;3.63;1.55;;;23.90;57.70;;;;;;5116088;27;20479;-69
2022/06/18 08:27:14;;;;;;;7.53;1.80;;;23.90;57.40;;;;;;5122439;27;20077;-67
2022/06/18 08:29:40;;;;;;;2.58;1.60;;;23.90;57.20;;;;;;5095404;28;20044;-72
2022/06/18 08:32:06;;;;;;;2.75;1.17;;;24.00;57.00;;;;;;5117482;27;20101;-71
2022/06/18 08:34:32;;;;;;;4.45;1.52;;;24.10;56.90;;;;;;5115873;27;20183;-72
2022/06/18 08:36:59;;;;;;;5.05;1.55;;;24.10;56.70;;;;;;5115604;27;20470;-71
2022/06/18 08:39:25;;;;;;;7.78;1.88;;;24.20;56.40;;;;;;5128449;27;20047;-74
2022/06/18 08:42:03;;;;;;;5.70;1.50;;;24.30;56.20;;;;;;5117296;27;20027;-74
2022/06/18 08:56:02;;;;;;;3.13;1.50;;;24.50;55.70;;;;;;5107110;27;20699;-71
2022/06/18 09:04:28;;;;;;;12.93;2.13;;;24.80;55.00;;;;;;5091144;27;2861077;-71
2022/06/18 09:13:06;;;;;;;2.97;1.33;;;25.50;53.30;;;;;;5121126;27;20347;-73
2022/06/18 09:15:39;;;;;;;6.28;1.38;;;25.60;52.90;;;;;;5100770;28;20047;-68
2022/06/18 09:18:29;;;;;;;2.88;1.33;;;25.70;52.70;;;;;;5087846;28;20062;-67
2022/06/18 09:20:59;;;;;;;2.65;1.60;;;25.80;52.60;;;;;;5087606;28;20601;-69
2022/06/18 09:23:29;;;;;;;3.45;1.20;;;25.80;52.50;;;;;;5088964;28;20460;-68
2022/06/18 09:25:57;;;;;;;3.67;1.13;;;25.90;52.50;;;;;;5087830;28;20098;-67
2022/06/18 09:31:12;;;;;;;3.38;1.38;;;25.90;52.30;;;;;;5129803;27;20426;-75
2022/06/18 09:33:45;;;;;;;8.77;1.58;;;26.00;52.40;;;;;;5129047;28;20502;-73
2022/06/18 09:36:17;;;;;;;11.25;2.28;;;25.90;52.40;;;;;;5145524;27;20051;-72
2022/06/18 09:38:49;;;;;;;7.00;1.98;;;26.00;52.50;;;;;;5129795;27;20054;-72
2022/06/18 09:44:04;;;;;;;5.72;1.60;;;26.00;52.60;;;;;;5109039;27;20359;-77
2022/06/18 09:46:37;;;;;;;7.03;1.40;;;26.10;52.60;;;;;;5090662;28;20101;-72
2022/06/18 09:49:03;;;;;;;7.18;1.67;;;26.10;52.70;;;;;;5091227;28;20725;-74
2022/06/18 09:51:45;;;;;;;7.30;1.75;;;26.00;52.60;;;;;;5091085;28;20035;-69
2022/06/18 09:54:12;;;;;;;6.05;1.58;;;26.00;52.80;;;;;;5091132;28;20040;-71
2022/06/18 09:56:43;;;;;;;7.45;1.70;;;26.00;52.80;;;;;;5090251;28;20093;-70
2022/06/18 09:59:30;;;;;;;5.93;1.35;;;26.00;52.90;;;;;;5105872;28;20040;-71
2022/06/18 10:01:56;;;;;;;14.55;2.58;;;26.00;53.00;;;;;;5107738;28;20511;-70
2022/06/18 10:07:19;;;;;;;9.00;1.95;;;26.00;53.20;;;;;;5087119;28;20080;-70
2022/06/18 10:09:51;;;;;;;8.30;2.40;;;26.00;53.20;;;;;;5090314;28;20035;-68
2022/06/18 10:12:24;;;;;;;9.13;2.17;;;26.00;53.30;;;;;;5090554;28;20407;-67
2022/06/18 10:14:55;;;;;;;11.38;2.15;;;26.00;53.30;;;;;;5090894;28;20054;-66
2022/06/18 10:34:32;;;;;;;7.22;1.60;;;25.90;53.50;;;;;;5129536;27;20357;-67
2022/06/18 10:37:17;;;;;;;5.95;1.35;;;25.80;53.80;;;;;;5114369;28;20476;-67
2022/06/18 10:40:11;;;;;;;2.97;1.38;;;25.80;53.80;;;;;;5118321;28;20028;-67
2022/06/18 10:43:16;;;;;;;1.80;1.02;;;25.80;53.90;;;;;;5126224;27;20482;-69
2022/06/18 10:45:49;;;;;;;4.40;1.23;;;25.80;54.00;;;;;;5090290;28;20149;-68
2022/06/18 10:48:18;;;;;;;4.53;1.25;;;25.70;53.90;;;;;;5108067;28;20051;-70
2022/06/18 10:50:47;;;;;;;3.58;1.25;;;25.70;54.00;;;;;;5108974;28;20086;-69
2022/06/18 10:53:17;;;;;;;1.90;1.10;;;25.60;54.10;;;;;;5108209;28;20044;-68
2022/06/18 10:55:43;;;;;;;2.53;1.02;;;25.60;54.20;;;;;;5108233;28;20044;-68
2022/06/18 10:58:15;;;;;;;3.60;1.52;;;25.50;54.20;;;;;;5108077;28;20478;-68
2022/06/18 11:01:02;;;;;;;2.13;1.02;;;25.50;54.40;;;;;;5109371;28;20480;-69
2022/06/18 11:03:32;;;;;;;2.85;0.88;;;25.40;54.40;;;;;;5108135;28;20593;-68
2022/06/18 11:05:58;;;;;;;2.47;1.00;;;25.30;54.60;;;;;;5108199;28;20048;-68
2022/06/18 11:08:28;;;;;;;2.00;1.10;;;25.20;54.60;;;;;;5107945;28;20120;-69
2022/06/18 11:13:35;;;;;;;4.55;1.38;;;25.20;54.80;;;;;;5152779;27;1168700;-68
2022/06/18 11:19:17;;;;;;;3.85;1.27;;;25.10;54.90;;;;;;5109748;27;20744;-69
2022/06/18 11:21:44;;;;;;;2.55;0.80;;;25.10;55.00;;;;;;5108435;28;20047;-69
2022/06/18 11:26:55;;;;;;;1.85;0.93;;;25.10;55.00;;;;;;5130273;27;20885;-68
2022/06/18 11:29:28;;;;;;;;;;;25.00;55.10;;;;;;5129703;28;20059;-69
2022/06/18 11:31:56;;;;;;;2.67;0.88;;;25.00;55.10;;;;;;5128950;27;19916;-69
2022/06/18 11:34:27;;;;;;;1.17;0.70;;;25.00;55.10;;;;;;5129214;28;20108;-69
2022/06/18 11:36:56;;;;;;;1.35;1.00;;;25.00;55.10;;;;;;5112028;28;20125;-68
2022/06/18 11:42:16;;;;;;;1.88;1.00;;;24.90;55.20;;;;;;5109797;27;20391;-69
2022/06/18 11:47:36;;;;;;;2.75;1.08;;;24.90;55.20;;;;;;5152973;27;1159587;-69
2022/06/18 11:50:25;;;;;;;1.77;1.30;;;24.90;55.20;;;;;;5153279;27;20095;-69
2022/06/18 11:53:16;;;;;;;1.42;0.80;;;24.90;55.20;;;;;;5152902;27;20046;-68
2022/06/18 11:55:48;;;;;;;2.13;0.93;;;24.90;55.20;;;;;;5152889;27;20474;-69
2022/06/18 12:01:22;;;;;;;2.38;0.75;;;24.90;55.30;;;;;;5048871;27;4067789;-68
2022/06/18 12:09:18;;;;;;;3.30;0.95;;;24.90;55.30;;;;;;5130179;27;20411;-68
2022/06/18 12:22:44;;;;;;;3.80;0.85;;;24.90;55.40;;;;;;5152470;27;1172635;-69
2022/06/18 12:42:29;;;;;;;1.98;0.95;;;24.90;55.40;;;;;;5130201;27;20357;-68
2022/06/18 12:48:03;;;;;;;2.20;0.68;;;24.90;55.40;;;;;;5109770;27;20778;-69
2022/06/18 12:50:42;;;;;;;2.47;0.70;;;24.90;55.40;;;;;;5109386;28;20051;-69
2022/06/18 12:56:16;;;;;;;1.95;0.98;;;24.90;55.40;;;;;;5130342;27;20925;-68
2022/06/18 12:59:21;;;;;;;1.10;0.70;;;24.90;55.50;;;;;;5128760;28;20376;-70
2022/06/18 13:04:45;;;;;;;2.97;0.70;;;24.90;55.50;;;;;;5130342;27;20399;-69
2022/06/18 13:07:39;;;;;;;3.15;1.33;;;24.90;55.50;;;;;;5129212;28;20050;-69
2022/06/18 13:10:17;;;;;;;1.85;0.93;;;24.90;55.50;;;;;;5129227;28;20092;-69
2022/06/18 13:13:26;;;;;;;1.63;0.88;;;24.90;55.50;;;;;;5128794;28;20057;-69
2022/06/18 13:16:02;;;;;;;1.10;0.77;;;24.90;55.40;;;;;;5128946;28;20047;-69
2022/06/18 13:18:43;;;;;;;1.65;1.20;;;24.90;55.50;;;;;;5128712;28;20046;-68
2022/06/18 13:21:10;;;;;;;2.42;1.17;;;24.90;55.40;;;;;;5128663;28;20542;-69
2022/06/18 13:37:25;;;;;;;1.85;0.80;;;24.90;55.50;;;;;;5130340;27;20694;-69
2022/06/18 13:43:00;;;;;;;1.55;0.80;;;24.90;55.60;;;;;;5089495;27;20693;-69
2022/06/18 13:51:03;;;;;;;2.45;1.00;;;24.90;55.70;;;;;;4831853;27;10124971;-68
2022/06/18 13:56:24;;;;;;;2.13;0.60;;;24.90;55.70;;;;;;5130234;27;20407;-69
2022/06/18 13:58:55;;;;;;;2.30;0.82;;;24.90;55.70;;;;;;5128944;27;20046;-69
2022/06/18 14:01:22;;;;;;;0.98;0.68;;;24.90;55.70;;;;;;5129181;28;20042;-69
2022/06/18 14:04:06;;;;;;;1.42;0.60;;;25.00;55.70;;;;;;5128870;28;20517;-70
2022/06/18 14:06:32;;;;;;;1.83;0.80;;;25.00;55.70;;;;;;5127936;27;20118;-69
2022/06/18 14:09:03;;;;;;;1.42;0.63;;;25.00;55.70;;;;;;5129102;28;20126;-70
2022/06/18 14:11:49;;;;;;;2.45;0.80;;;25.00;55.80;;;;;;5128747;28;20096;-69
2022/06/18 14:14:28;;;;;;;1.55;0.60;;;25.00;55.90;;;;;;5128959;27;20040;-69
2022/06/18 14:17:01;;;;;;;1.88;0.50;;;24.90;55.90;;;;;;5128581;28;20074;-69
2022/06/18 14:19:31;;;;;;;2.30;1.13;;;24.90;55.90;;;;;;5130030;27;20035;-70
2022/06/18 14:30:03;;;;;;;1.60;0.63;;;24.90;56.10;;;;;;5130338;27;21075;-69
2022/06/18 14:32:57;;;;;;;1.25;0.60;;;25.00;56.10;;;;;;5146204;27;20044;-69
2022/06/18 14:35:54;;;;;;;2.20;0.70;;;25.00;56.10;;;;;;5145883;27;20035;-68
2022/06/18 14:38:20;;;;;;;0.95;0.50;;;25.00;56.10;;;;;;5130376;27;20043;-69
2022/06/18 14:44:04;;;;;;;1.13;0.60;;;25.00;56.10;;;;;;5128528;27;20047;-69
2022/06/18 15:03:10;;;;;;;1.67;0.90;;;25.00;56.10;;;;;;5130216;27;20180;-70
2022/06/18 15:05:39;;;;;;;1.23;0.43;;;25.00;56.10;;;;;;5130439;27;20046;-68
2022/06/18 15:08:11;;;;;;;1.42;0.43;;;25.00;56.10;;;;;;5128978;27;20122;-70
2022/06/18 15:10:45;;;;;;;1.23;0.50;;;25.10;56.30;;;;;;5129126;28;20040;-69
2022/06/18 15:13:11;;;;;;;1.63;0.43;;;25.10;56.20;;;;;;5146304;27;20044;-69
2022/06/18 15:18:36;;;;;;;1.55;0.55;;;25.10;56.20;;;;;;5109797;27;20408;-70
2022/06/18 15:21:13;;;;;;;0.77;0.40;;;25.10;56.20;;;;;;5108741;28;20112;-69
2022/06/18 15:23:56;;;;;;;0.90;0.43;;;25.10;56.30;;;;;;5108653;28;20035;-69
2022/06/18 15:26:26;;;;;;;2.00;0.63;;;25.10;56.30;;;;;;5108733;28;20070;-68
2022/06/18 15:28:51;;;;;;;1.35;0.50;;;25.10;56.30;;;;;;5107639;28;20483;-69
2022/06/18 15:31:37;;;;;;;1.52;0.47;;;25.10;56.30;;;;;;5108551;28;20043;-69
2022/06/18 15:37:21;;;;;;;1.23;0.40;;;25.10;56.40;;;;;;5129654;27;20767;-70
2022/06/18 15:39:51;;;;;;;0.55;0.32;;;25.10;56.40;;;;;;5128906;27;20532;-70
2022/06/18 15:42:19;;;;;;;1.30;0.55;;;25.10;56.50;;;;;;5128959;27;20513;-69
2022/06/18 15:44:52;;;;;;;1.73;0.47;;;25.00;56.50;;;;;;5129988;27;20096;-69
2022/06/18 15:47:26;;;;;;;1.77;0.50;;;25.10;56.50;;;;;;5128844;28;20548;-69
2022/06/18 15:49:52;;;;;;;1.08;0.80;;;25.10;56.50;;;;;;5130097;27;20364;-69
2022/06/18 15:52:34;;;;;;;0.98;0.50;;;25.10;56.50;;;;;;5128220;28;20043;-69
2022/06/18 15:55:09;;;;;;;1.42;0.40;;;25.10;56.60;;;;;;5128544;27;20096;-69
2022/06/18 15:57:36;;;;;;;1.23;0.63;;;25.10;56.60;;;;;;5128904;27;20039;-69
2022/06/18 16:00:23;;;;;;;1.17;0.40;;;25.10;56.60;;;;;;5130032;28;20442;-70
2022/06/18 16:02:50;;;;;;;1.65;0.50;;;25.10;56.60;;;;;;5128780;28;20551;-69
2022/06/18 16:05:19;;;;;;;1.17;0.40;;;25.10;56.60;;;;;;5129780;27;20054;-69
2022/06/18 16:07:51;;;;;;;1.73;0.60;;;25.10;56.60;;;;;;5128770;28;20122;-69
2022/06/18 16:13:25;;;;;;;1.45;0.50;;;25.10;56.70;;;;;;5130340;27;20357;-70